Time;durP1;ratioP1;P1;durP2;ratioP2;P2;SDS_P1;SDS_P2;PMS_P1;PMS_P2;Temp;Humidity;BMP_temperature;BMP_pressure;BME280_temperature;BME280_humidity;BME280_pressure;Samples;Min_cycle;Max_cycle;Signal;HPM_P1;HPM_P2
2024/04/25 00:00:31;;;;;;;9.63;7.97;;;;;;;;;;10762136;26;20001;-74
2024/04/25 00:05:25;;;;;;;7.53;6.82;;;;;;;;;;10764044;26;20015;-73
2024/04/25 00:10:19;;;;;;;8.50;6.75;;;;;;;;;;10763262;26;20543;-73
2024/04/25 00:15:14;;;;;;;8.65;7.10;;;;;;;;;;10762056;26;20016;-74
2024/04/25 00:20:11;;;;;;;8.35;7.55;;;;;;;;;;10761003;26;20407;-74
2024/04/25 00:25:06;;;;;;;7.72;7.03;;;;;;;;;;10776523;26;20046;-74
2024/04/25 00:30:01;;;;;;;9.43;6.95;;;;;;;;;;10766058;26;20032;-74
2024/04/25 00:34:57;;;;;;;9.27;7.50;;;;;;;;;;10769325;26;20004;-74
2024/04/25 00:39:54;;;;;;;9.10;8.18;;;;;;;;;;10775367;26;20018;-74
2024/04/25 00:44:49;;;;;;;8.77;7.78;;;;;;;;;;10736589;26;20015;-74
2024/04/25 00:49:43;;;;;;;16.13;11.18;;;;;;;;;;10767372;26;20376;-74
2024/04/25 00:54:37;;;;;;;7.75;6.85;;;;;;;;;;10721197;26;20015;-75
2024/04/25 00:59:31;;;;;;;8.52;7.68;;;;;;;;;;10778980;26;20018;-74
2024/04/25 01:04:26;;;;;;;7.10;6.40;;;;;;;;;;10766660;26;20007;-74
2024/04/25 01:09:20;;;;;;;8.25;7.45;;;;;;;;;;10768522;26;20007;-74
2024/04/25 01:14:16;;;;;;;9.68;8.20;;;;;;;;;;10769013;26;20000;-74
2024/04/25 01:19:11;;;;;;;7.38;6.68;;;;;;;;;;10766691;26;20081;-74
2024/04/25 01:24:05;;;;;;;7.85;7.05;;;;;;;;;;10774553;26;20039;-74
2024/04/25 01:29:00;;;;;;;8.45;7.57;;;;;;;;;;10798992;26;20003;-74
2024/04/25 01:33:53;;;;;;;9.40;7.18;;;;;;;;;;10804543;26;20008;-74
2024/04/25 01:38:47;;;;;;;9.00;8.10;;;;;;;;;;10804854;26;20010;-75
2024/04/25 01:43:42;;;;;;;9.73;7.75;;;;;;;;;;10803171;26;20003;-75
2024/04/25 01:48:36;;;;;;;7.53;6.85;;;;;;;;;;10800975;26;20429;-74
2024/04/25 01:53:32;;;;;;;8.68;7.80;;;;;;;;;;10797342;26;20019;-74
2024/04/25 01:58:26;;;;;;;8.25;7.45;;;;;;;;;;10798077;26;20005;-74
2024/04/25 02:03:21;;;;;;;6.43;5.88;;;;;;;;;;10797415;26;20077;-74
2024/04/25 02:08:15;;;;;;;6.88;6.28;;;;;;;;;;10796625;26;20031;-75
2024/04/25 02:13:10;;;;;;;6.93;6.22;;;;;;;;;;10799422;26;20531;-75
2024/04/25 02:18:06;;;;;;;6.97;6.28;;;;;;;;;;10724872;26;1787074;-76
2024/04/25 02:28:13;;;;;;;9.75;8.85;;;;;;;;;;10798996;26;20019;-75
2024/04/25 02:33:07;;;;;;;9.00;8.10;;;;;;;;;;10789239;26;20004;-75
2024/04/25 02:38:02;;;;;;;9.90;8.90;;;;;;;;;;10793694;26;20082;-75
2024/04/25 02:42:56;;;;;;;9.52;8.52;;;;;;;;;;10802292;26;20090;-74
2024/04/25 02:47:51;;;;;;;8.77;7.97;;;;;;;;;;10797010;26;20003;-76
2024/04/25 02:52:45;;;;;;;10.65;9.43;;;;;;;;;;10794807;26;20004;-75
2024/04/25 02:57:40;;;;;;;9.95;8.95;;;;;;;;;;10794734;26;20015;-74
2024/04/25 03:02:34;;;;;;;13.20;9.75;;;;;;;;;;10795212;26;20298;-75
2024/04/25 03:07:29;;;;;;;9.82;8.82;;;;;;;;;;10795341;26;20003;-75
2024/04/25 03:12:23;;;;;;;9.65;8.68;;;;;;;;;;10797153;26;20436;-74
2024/04/25 03:17:18;;;;;;;9.75;8.85;;;;;;;;;;10792952;26;20019;-75
2024/04/25 03:22:12;;;;;;;9.48;8.48;;;;;;;;;;10797207;26;20004;-75
2024/04/25 03:27:07;;;;;;;10.13;9.13;;;;;;;;;;10797735;26;20004;-75
2024/04/25 03:32:01;;;;;;;10.32;9.32;;;;;;;;;;10787470;26;20026;-75
2024/04/25 03:36:58;;;;;;;9.82;8.82;;;;;;;;;;10799948;26;20005;-74
2024/04/25 03:41:53;;;;;;;12.93;11.63;;;;;;;;;;10791626;26;20008;-76
2024/04/25 03:46:48;;;;;;;15.38;13.77;;;;;;;;;;10796311;26;20000;-76
2024/04/25 03:51:43;;;;;;;12.90;11.57;;;;;;;;;;10797733;26;20004;-76
2024/04/25 03:56:37;;;;;;;15.82;14.25;;;;;;;;;;10799177;26;20015;-74
2024/04/25 04:01:32;;;;;;;16.63;14.90;;;;;;;;;;10792964;26;20015;-74
2024/04/25 04:06:27;;;;;;;23.23;19.30;;;;;;;;;;10796810;26;20014;-73
2024/04/25 04:11:21;;;;;;;20.95;18.77;;;;;;;;;;10768839;26;20003;-73
2024/04/25 04:16:16;;;;;;;21.35;18.67;;;;;;;;;;10795949;26;20472;-76
2024/04/25 04:21:13;;;;;;;17.52;14.38;;;;;;;;;;10796579;26;20015;-74
2024/04/25 04:26:07;;;;;;;12.10;10.85;;;;;;;;;;10797930;26;20082;-74
2024/04/25 04:31:01;;;;;;;12.48;11.35;;;;;;;;;;10789571;26;20011;-74
2024/04/25 04:35:56;;;;;;;11.18;8.98;;;;;;;;;;10797124;26;20004;-74
2024/04/25 04:40:51;;;;;;;11.15;10.05;;;;;;;;;;10791195;26;20012;-75
2024/04/25 04:45:46;;;;;;;13.18;11.32;;;;;;;;;;10790740;26;20440;-75
2024/04/25 04:50:40;;;;;;;12.20;10.90;;;;;;;;;;10781700;26;20028;-75
2024/04/25 04:55:35;;;;;;;13.70;12.40;;;;;;;;;;10788056;26;20003;-75
2024/04/25 05:00:32;;;;;;;13.27;11.88;;;;;;;;;;10776572;26;20004;-75
2024/04/25 05:05:28;;;;;;;11.75;10.40;;;;;;;;;;10789147;26;20008;-75
2024/04/25 05:10:25;;;;;;;12.60;10.80;;;;;;;;;;10786784;26;20020;-76
2024/04/25 05:15:20;;;;;;;11.45;10.25;;;;;;;;;;10796924;26;20011;-74
2024/04/25 05:20:14;;;;;;;13.40;12.10;;;;;;;;;;10786611;26;20008;-75
2024/04/25 05:25:08;;;;;;;11.52;10.52;;;;;;;;;;10786064;26;19999;-73
2024/04/25 05:30:02;;;;;;;11.25;6.55;;;;;;;;;;10782948;26;20015;-74
2024/04/25 05:34:57;;;;;;;6.82;6.15;;;;;;;;;;10783573;26;20015;-74
2024/04/25 05:39:54;;;;;;;9.27;8.25;;;;;;;;;;10782332;26;20019;-74
2024/04/25 05:44:49;;;;;;;10.85;9.82;;;;;;;;;;10783846;26;20004;-73
2024/04/25 05:49:43;;;;;;;11.07;8.73;;;;;;;;;;10800527;26;20012;-73
2024/04/25 05:54:37;;;;;;;6.47;5.82;;;;;;;;;;10793265;26;20012;-74
2024/04/25 05:59:30;;;;;;;5.07;4.57;;;;;;;;;;10800089;26;20015;-73
2024/04/25 06:04:25;;;;;;;7.15;6.45;;;;;;;;;;10795218;26;20522;-75
2024/04/25 06:09:20;;;;;;;6.07;5.55;;;;;;;;;;10804429;26;20072;-75
2024/04/25 06:14:14;;;;;;;7.78;5.20;;;;;;;;;;10795255;26;20333;-74
2024/04/25 06:19:09;;;;;;;7.28;5.00;;;;;;;;;;10799165;26;20004;-74
2024/04/25 06:24:05;;;;;;;8.18;3.80;;;;;;;;;;10795561;26;20015;-75
2024/04/25 06:29:00;;;;;;;3.35;3.05;;;;;;;;;;10796320;26;20022;-74
2024/04/25 06:33:59;;;;;;;3.03;2.83;;;;;;;;;;10800546;26;20004;-74
2024/04/25 06:38:54;;;;;;;2.03;1.90;;;;;;;;;;10789726;26;20023;-73
2024/04/25 06:43:48;;;;;;;2.50;2.30;;;;;;;;;;10796189;26;20023;-73
2024/04/25 06:48:44;;;;;;;2.20;2.05;;;;;;;;;;10795885;26;20058;-73
2024/04/25 06:53:41;;;;;;;2.10;1.90;;;;;;;;;;10793640;26;20004;-75
2024/04/25 06:58:34;;;;;;;2.20;1.60;;;;;;;;;;10797210;26;20003;-73
2024/04/25 07:03:28;;;;;;;1.85;1.75;;;;;;;;;;10798362;26;20008;-72
2024/04/25 07:08:22;;;;;;;1.92;1.70;;;;;;;;;;10794573;26;20012;-74
2024/04/25 07:13:17;;;;;;;2.00;1.90;;;;;;;;;;10792637;26;20026;-73
2024/04/25 07:18:12;;;;;;;1.60;1.50;;;;;;;;;;10798035;26;20016;-73
2024/04/25 07:23:07;;;;;;;5.40;2.17;;;;;;;;;;10783034;26;20513;-72
2024/04/25 07:28:05;;;;;;;4.10;2.25;;;;;;;;;;10790798;26;20332;-75
2024/04/25 07:32:59;;;;;;;1.98;1.85;;;;;;;;;;10791760;26;20018;-73
2024/04/25 07:37:53;;;;;;;4.47;2.40;;;;;;;;;;10786441;26;20012;-74
2024/04/25 07:42:46;;;;;;;2.10;1.92;;;;;;;;;;10792249;26;20521;-74
2024/04/25 07:47:41;;;;;;;3.40;1.83;;;;;;;;;;10791031;26;20420;-72
2024/04/25 07:52:35;;;;;;;1.67;1.58;;;;;;;;;;10796328;26;20158;-72
2024/04/25 07:57:31;;;;;;;2.45;2.03;;;;;;;;;;10797742;26;20003;-72
2024/04/25 08:02:25;;;;;;;1.80;1.70;;;;;;;;;;10783316;26;20007;-72
2024/04/25 08:07:19;;;;;;;1.90;1.80;;;;;;;;;;10791860;26;20008;-72
2024/04/25 08:12:13;;;;;;;2.85;2.45;;;;;;;;;;10796899;26;20011;-73
2024/04/25 08:17:08;;;;;;;4.47;2.47;;;;;;;;;;10789475;26;20011;-72
2024/04/25 08:22:03;;;;;;;1.90;1.80;;;;;;;;;;10785253;26;20007;-73
2024/04/25 08:26:58;;;;;;;1.83;1.73;;;;;;;;;;10794220;26;20014;-71
2024/04/25 08:31:53;;;;;;;1.83;1.73;;;;;;;;;;10794286;26;20014;-72
2024/04/25 08:36:46;;;;;;;1.75;1.58;;;;;;;;;;10792652;26;20420;-72
2024/04/25 08:41:43;;;;;;;4.50;1.70;;;;;;;;;;10790631;26;20085;-72
2024/04/25 08:46:38;;;;;;;2.45;1.85;;;;;;;;;;10799413;26;20011;-73
2024/04/25 08:51:31;;;;;;;2.30;2.13;;;;;;;;;;10778374;26;20007;-72
2024/04/25 08:56:30;;;;;;;1.88;1.70;;;;;;;;;;10775339;26;20008;-72
2024/04/25 09:01:26;;;;;;;1.73;1.60;;;;;;;;;;10806410;26;20015;-72
2024/04/25 09:06:21;;;;;;;2.75;2.55;;;;;;;;;;10807616;26;20008;-72
2024/04/25 09:11:19;;;;;;;3.42;2.65;;;;;;;;;;10798548;26;20333;-71
2024/04/25 09:16:13;;;;;;;2.05;1.95;;;;;;;;;;10805556;26;20077;-72
2024/04/25 09:21:07;;;;;;;2.17;1.98;;;;;;;;;;10798674;26;20004;-72
2024/04/25 09:26:03;;;;;;;1.98;1.80;;;;;;;;;;10803835;26;20003;-72
2024/04/25 09:30:57;;;;;;;2.63;2.10;;;;;;;;;;10799146;26;20003;-71
2024/04/25 09:35:51;;;;;;;3.30;3.00;;;;;;;;;;10795616;26;20059;-72
2024/04/25 09:40:47;;;;;;;2.28;2.08;;;;;;;;;;10804475;26;20031;-72
2024/04/25 09:45:43;;;;;;;4.10;2.15;;;;;;;;;;10798227;26;20085;-72
2024/04/25 09:50:42;;;;;;;2.58;2.25;;;;;;;;;;10799068;26;20076;-72
2024/04/25 09:55:37;;;;;;;8.27;2.25;;;;;;;;;;10794830;26;20015;-71
2024/04/25 10:00:33;;;;;;;1.98;1.88;;;;;;;;;;10765642;26;20088;-71
2024/04/25 10:05:27;;;;;;;2.45;2.25;;;;;;;;;;10793160;26;20440;-70
2024/04/25 10:10:21;;;;;;;3.70;2.08;;;;;;;;;;10799257;26;20413;-72
2024/04/25 10:15:26;;;;;;;2.83;2.63;;;;;;;;;;10795982;26;20308;-71
2024/04/25 10:20:20;;;;;;;2.13;1.92;;;;;;;;;;10784056;26;20015;-71
2024/04/25 10:25:15;;;;;;;2.10;1.90;;;;;;;;;;10794557;26;20085;-71
2024/04/25 10:30:10;;;;;;;3.10;2.90;;;;;;;;;;10794734;26;20003;-71
2024/04/25 10:35:05;;;;;;;4.20;2.42;;;;;;;;;;10797914;26;20018;-71
2024/04/25 10:39:59;;;;;;;5.00;2.63;;;;;;;;;;10801872;26;20452;-72
2024/04/25 10:45:12;;;;;;;2.70;2.50;;;;;;;;;;10801431;26;20032;-69
2024/04/25 10:50:08;;;;;;;2.75;2.53;;;;;;;;;;10792575;26;20027;-72
2024/04/25 10:55:04;;;;;;;2.90;2.70;;;;;;;;;;10804208;26;20019;-72
2024/04/25 10:59:59;;;;;;;3.03;2.72;;;;;;;;;;10799516;26;20016;-72
2024/04/25 11:04:53;;;;;;;4.15;2.53;;;;;;;;;;10796670;26;20059;-72
2024/04/25 11:09:47;;;;;;;2.65;2.45;;;;;;;;;;10798136;26;20336;-73
2024/04/25 11:14:42;;;;;;;3.05;2.78;;;;;;;;;;10801091;26;20011;-73
2024/04/25 11:19:35;;;;;;;2.50;2.30;;;;;;;;;;10799498;26;20004;-72
2024/04/25 11:24:43;;;;;;;2.97;2.78;;;;;;;;;;10771495;26;20003;-72
2024/04/25 11:29:39;;;;;;;2.67;2.42;;;;;;;;;;10795216;26;20717;-72
2024/04/25 11:34:34;;;;;;;2.83;2.55;;;;;;;;;;10768681;26;20421;-72
2024/04/25 11:39:30;;;;;;;3.22;3.03;;;;;;;;;;10797091;26;20478;-72
2024/04/25 11:44:26;;;;;;;2.80;2.60;;;;;;;;;;10799568;26;20005;-73
2024/04/25 11:49:20;;;;;;;3.63;2.88;;;;;;;;;;10800308;26;20015;-73
2024/04/25 11:54:13;;;;;;;3.38;3.13;;;;;;;;;;10799342;26;20463;-72
2024/04/25 11:59:07;;;;;;;3.42;3.13;;;;;;;;;;10793594;26;20004;-73
2024/04/25 12:04:02;;;;;;;3.75;2.33;;;;;;;;;;10796350;26;20004;-73
2024/04/25 12:08:56;;;;;;;2.72;2.53;;;;;;;;;;10793399;26;20014;-72
2024/04/25 12:13:50;;;;;;;3.33;3.03;;;;;;;;;;10797395;26;20015;-72
2024/04/25 12:18:44;;;;;;;2.85;2.65;;;;;;;;;;10795432;26;20350;-72
2024/04/25 12:23:39;;;;;;;4.35;2.78;;;;;;;;;;10791741;26;20018;-72
2024/04/25 12:28:34;;;;;;;3.00;2.70;;;;;;;;;;10797451;26;20054;-72
2024/04/25 12:33:28;;;;;;;4.13;3.67;;;;;;;;;;10795314;26;20003;-72
2024/04/25 12:38:22;;;;;;;4.10;3.50;;;;;;;;;;10791668;26;20018;-72
2024/04/25 12:43:18;;;;;;;3.15;2.70;;;;;;;;;;10792017;26;20007;-73
2024/04/25 12:48:13;;;;;;;3.08;2.83;;;;;;;;;;10796049;26;20004;-72
2024/04/25 12:53:07;;;;;;;3.40;3.10;;;;;;;;;;10791280;26;20004;-72
2024/04/25 12:58:01;;;;;;;3.00;2.78;;;;;;;;;;10797807;26;20023;-72
2024/04/25 13:02:55;;;;;;;4.82;3.25;;;;;;;;;;10802322;26;20027;-72
2024/04/25 13:07:50;;;;;;;3.38;2.63;;;;;;;;;;10792387;26;20012;-72
2024/04/25 13:12:44;;;;;;;3.70;2.95;;;;;;;;;;10792735;26;22557;-72
2024/04/25 13:17:39;;;;;;;3.45;3.15;;;;;;;;;;10798243;26;20043;-72
2024/04/25 13:22:33;;;;;;;2.58;2.38;;;;;;;;;;10789216;26;20026;-72
2024/04/25 13:27:31;;;;;;;2.72;2.45;;;;;;;;;;10791496;26;20432;-71
2024/04/25 13:32:27;;;;;;;4.78;2.72;;;;;;;;;;10796460;26;20000;-71
2024/04/25 13:37:21;;;;;;;3.53;2.85;;;;;;;;;;10785279;26;20004;-71
2024/04/25 13:42:15;;;;;;;2.70;2.50;;;;;;;;;;10790096;26;20005;-71
2024/04/25 13:47:09;;;;;;;3.33;3.00;;;;;;;;;;10790351;26;20077;-72
2024/04/25 13:52:04;;;;;;;4.57;2.88;;;;;;;;;;10792373;26;20020;-71
2024/04/25 13:56:59;;;;;;;3.00;2.80;;;;;;;;;;10794908;26;20005;-71
2024/04/25 14:01:53;;;;;;;3.80;3.42;;;;;;;;;;10788914;26;20031;-72
2024/04/25 14:06:47;;;;;;;2.42;2.22;;;;;;;;;;10794960;26;20000;-72
2024/04/25 14:11:42;;;;;;;3.17;2.88;;;;;;;;;;10792708;26;20003;-71
2024/04/25 14:16:36;;;;;;;5.50;3.45;;;;;;;;;;10793135;26;20018;-72
2024/04/25 14:21:31;;;;;;;3.67;3.08;;;;;;;;;;10789305;26;20032;-72
2024/04/25 14:31:36;;;;;;;3.10;2.90;;;;;;;;;;10792286;26;20032;-72
2024/04/25 14:36:31;;;;;;;3.50;3.20;;;;;;;;;;10795284;26;20012;-72
2024/04/25 14:41:25;;;;;;;3.42;3.13;;;;;;;;;;10787962;26;20526;-72
2024/04/25 14:46:19;;;;;;;4.10;3.35;;;;;;;;;;10791213;26;20381;-72
2024/04/25 14:51:14;;;;;;;7.90;5.22;;;;;;;;;;10801575;26;20003;-72
2024/04/25 14:56:08;;;;;;;4.25;3.63;;;;;;;;;;10788876;26;20012;-72
2024/04/25 15:01:03;;;;;;;2.95;2.60;;;;;;;;;;10751744;26;19999;-72
2024/04/25 15:05:58;;;;;;;3.17;2.90;;;;;;;;;;10790061;26;20015;-72
2024/04/25 15:10:53;;;;;;;10.38;8.45;;;;;;;;;;10784285;26;20031;-72
2024/04/25 15:15:50;;;;;;;4.05;3.40;;;;;;;;;;10794824;26;20074;-72
2024/04/25 15:20:44;;;;;;;3.67;3.30;;;;;;;;;;10799887;26;20007;-72
2024/04/25 15:25:38;;;;;;;3.53;3.10;;;;;;;;;;10803154;26;20051;-72
2024/04/25 15:30:33;;;;;;;4.68;3.00;;;;;;;;;;10800538;26;20432;-72
2024/04/25 15:35:27;;;;;;;3.80;3.05;;;;;;;;;;10804330;26;20003;-72
2024/04/25 15:40:22;;;;;;;2.42;2.33;;;;;;;;;;10802255;26;20451;-72
2024/04/25 15:45:18;;;;;;;5.38;3.42;;;;;;;;;;10799542;26;20015;-72
2024/04/25 15:50:12;;;;;;;3.45;2.85;;;;;;;;;;10801752;26;20001;-72
2024/04/25 15:55:07;;;;;;;3.13;2.90;;;;;;;;;;10801664;26;20078;-72
2024/04/25 16:00:00;;;;;;;5.97;4.60;;;;;;;;;;10795604;26;20019;-72
2024/04/25 16:04:56;;;;;;;8.60;4.60;;;;;;;;;;10801926;26;20352;-71
2024/04/25 16:09:57;;;;;;;4.80;4.38;;;;;;;;;;10791967;26;20003;-71
2024/04/25 16:14:52;;;;;;;5.22;4.15;;;;;;;;;;10801319;26;20011;-71
2024/04/25 16:19:46;;;;;;;4.32;2.60;;;;;;;;;;10797503;26;20084;-71
2024/04/25 16:24:41;;;;;;;4.18;3.45;;;;;;;;;;10798229;26;20073;-72
2024/04/25 16:29:35;;;;;;;5.32;2.65;;;;;;;;;;10784835;26;20454;-72
2024/04/25 16:34:29;;;;;;;8.27;5.65;;;;;;;;;;10787084;26;20045;-72
2024/04/25 16:39:25;;;;;;;4.35;2.60;;;;;;;;;;10784394;26;20012;-72
2024/04/25 16:44:21;;;;;;;4.47;2.80;;;;;;;;;;10783660;26;20432;-72
2024/04/25 16:49:15;;;;;;;3.50;2.78;;;;;;;;;;10787691;26;20000;-72
2024/04/25 16:54:12;;;;;;;3.42;2.90;;;;;;;;;;10784533;26;20015;-72
2024/04/25 16:59:06;;;;;;;3.03;2.83;;;;;;;;;;10787664;26;20008;-72
2024/04/25 17:04:00;;;;;;;2.45;2.13;;;;;;;;;;10781581;26;20004;-72
2024/04/25 17:08:54;;;;;;;3.75;3.40;;;;;;;;;;10784902;26;20018;-73
2024/04/25 17:13:54;;;;;;;4.35;2.60;;;;;;;;;;10790484;26;20018;-72
2024/04/25 17:19:04;;;;;;;3.15;2.80;;;;;;;;;;10791356;26;20000;-72
2024/04/25 17:23:59;;;;;;;3.03;2.75;;;;;;;;;;10795295;26;20015;-72
2024/04/25 17:28:56;;;;;;;3.55;3.17;;;;;;;;;;10792362;26;20315;-72
2024/04/25 17:33:51;;;;;;;3.72;2.72;;;;;;;;;;10802121;26;20096;-72
2024/04/25 17:38:45;;;;;;;6.00;5.05;;;;;;;;;;10786776;26;20018;-71
2024/04/25 17:43:40;;;;;;;5.28;4.78;;;;;;;;;;10794078;26;20078;-72
2024/04/25 17:48:34;;;;;;;7.43;5.45;;;;;;;;;;10791012;26;20015;-72
2024/04/25 17:53:28;;;;;;;6.65;4.07;;;;;;;;;;10798794;26;20021;-72
2024/04/25 17:58:22;;;;;;;10.77;9.80;;;;;;;;;;10793830;26;20003;-71
2024/04/25 18:03:16;;;;;;;9.00;6.70;;;;;;;;;;10791047;26;20016;-71
2024/04/25 18:08:11;;;;;;;5.85;4.10;;;;;;;;;;10794018;26;20086;-71
2024/04/25 18:13:04;;;;;;;5.15;4.53;;;;;;;;;;10783235;26;20004;-71
2024/04/25 18:17:58;;;;;;;4.07;3.67;;;;;;;;;;10789006;26;20085;-71
2024/04/25 18:22:53;;;;;;;4.60;3.83;;;;;;;;;;10792187;26;20007;-70
2024/04/25 18:27:48;;;;;;;7.45;5.13;;;;;;;;;;10785634;26;20343;-71
2024/04/25 18:32:41;;;;;;;8.45;6.22;;;;;;;;;;10785232;26;20003;-71
2024/04/25 18:37:36;;;;;;;5.57;5.05;;;;;;;;;;10788141;26;20005;-71
2024/04/25 18:42:29;;;;;;;6.93;6.05;;;;;;;;;;10797336;26;20015;-71
2024/04/25 18:47:24;;;;;;;5.63;5.13;;;;;;;;;;10783560;26;20005;-73
2024/04/25 18:52:18;;;;;;;4.80;4.30;;;;;;;;;;10787888;26;20018;-72
2024/04/25 18:57:13;;;;;;;5.00;4.60;;;;;;;;;;10784468;26;20003;-72
2024/04/25 19:02:07;;;;;;;5.28;4.80;;;;;;;;;;10794431;26;20004;-72
2024/04/25 19:07:03;;;;;;;5.75;5.25;;;;;;;;;;10792836;26;20004;-72
2024/04/25 19:12:16;;;;;;;6.07;5.00;;;;;;;;;;10795424;26;20012;-72
2024/04/25 19:17:10;;;;;;;5.90;5.22;;;;;;;;;;10780875;26;20008;-72
2024/04/25 19:22:04;;;;;;;7.95;5.85;;;;;;;;;;10792605;26;20004;-73
2024/04/25 19:26:58;;;;;;;6.30;5.68;;;;;;;;;;10790691;26;20077;-73
2024/04/25 19:31:53;;;;;;;9.25;5.85;;;;;;;;;;10792019;26;20004;-73
2024/04/25 19:36:48;;;;;;;10.40;5.65;;;;;;;;;;10782374;26;20015;-72
2024/04/25 19:41:42;;;;;;;7.35;6.20;;;;;;;;;;10791039;26;20081;-73
2024/04/25 19:46:36;;;;;;;17.17;13.98;;;;;;;;;;10791313;26;20018;-72
2024/04/25 19:51:30;;;;;;;11.18;8.45;;;;;;;;;;10792171;26;20036;-72
2024/04/25 19:56:24;;;;;;;15.32;12.70;;;;;;;;;;10786986;26;20000;-72
2024/04/25 20:01:18;;;;;;;18.65;14.27;;;;;;;;;;10784832;26;20004;-73
2024/04/25 20:06:18;;;;;;;11.77;10.57;;;;;;;;;;10796466;26;20003;-73
2024/04/25 20:11:12;;;;;;;23.50;17.63;;;;;;;;;;10806898;26;20035;-73
2024/04/25 20:16:14;;;;;;;8.40;7.55;;;;;;;;;;10796344;26;20098;-73
2024/04/25 20:21:08;;;;;;;8.25;6.50;;;;;;;;;;10793572;26;20081;-73
2024/04/25 20:26:02;;;;;;;6.72;5.93;;;;;;;;;;10799624;26;20003;-73
2024/04/25 20:30:56;;;;;;;6.65;5.90;;;;;;;;;;10802888;26;20004;-73
2024/04/25 20:35:50;;;;;;;6.25;5.65;;;;;;;;;;10776334;26;20016;-73
2024/04/25 20:40:45;;;;;;;6.20;4.95;;;;;;;;;;10789145;26;20007;-73
2024/04/25 20:45:39;;;;;;;6.07;4.55;;;;;;;;;;10809451;26;20003;-73
2024/04/25 20:50:32;;;;;;;6.70;3.88;;;;;;;;;;10745760;26;20036;-74
2024/04/25 20:55:27;;;;;;;5.95;4.60;;;;;;;;;;10803720;26;20072;-74
2024/04/25 21:00:21;;;;;;;3.60;3.30;;;;;;;;;;10799549;26;20004;-73
2024/04/25 21:05:15;;;;;;;3.72;3.42;;;;;;;;;;10806085;26;20076;-74
2024/04/25 21:10:11;;;;;;;3.83;3.20;;;;;;;;;;10825143;26;20397;-72
2024/04/25 21:15:08;;;;;;;4.38;3.97;;;;;;;;;;10768965;26;20035;-72
2024/04/25 21:20:05;;;;;;;6.05;3.70;;;;;;;;;;10764693;26;20048;-72
2024/04/25 21:24:59;;;;;;;7.65;5.78;;;;;;;;;;10762388;26;20040;-72
2024/04/25 21:29:54;;;;;;;4.15;3.80;;;;;;;;;;10759897;26;20004;-73
2024/04/25 21:34:48;;;;;;;4.75;4.30;;;;;;;;;;10752145;26;20318;-73
2024/04/25 21:39:42;;;;;;;5.68;4.60;;;;;;;;;;10766622;26;20004;-73
2024/04/25 21:44:36;;;;;;;5.30;4.80;;;;;;;;;;10767236;26;20004;-72
2024/04/25 21:49:32;;;;;;;5.68;4.60;;;;;;;;;;10759466;26;20037;-73
2024/04/25 21:54:26;;;;;;;9.73;7.10;;;;;;;;;;10763826;26;20058;-73
2024/04/25 21:59:20;;;;;;;6.40;5.18;;;;;;;;;;10771810;26;20406;-73
2024/04/25 22:04:14;;;;;;;8.60;5.97;;;;;;;;;;10790277;26;20036;-73
2024/04/25 22:09:08;;;;;;;5.30;4.80;;;;;;;;;;10766688;26;20004;-73
2024/04/25 22:14:03;;;;;;;6.68;5.35;;;;;;;;;;10767253;26;20324;-72
2024/04/25 22:18:57;;;;;;;5.93;5.35;;;;;;;;;;10765881;26;20004;-72
2024/04/25 22:23:52;;;;;;;5.05;4.65;;;;;;;;;;10752752;26;20032;-75
2024/04/25 22:28:46;;;;;;;6.20;5.07;;;;;;;;;;10753932;26;20004;-72
2024/04/25 22:33:40;;;;;;;6.85;6.15;;;;;;;;;;10767638;26;20445;-74
2024/04/25 22:38:34;;;;;;;5.05;4.55;;;;;;;;;;10761829;26;20004;-73
2024/04/25 22:43:29;;;;;;;8.82;4.88;;;;;;;;;;10760294;26;20000;-73
2024/04/25 22:48:23;;;;;;;7.50;6.65;;;;;;;;;;10759867;26;20004;-73
2024/04/25 22:53:17;;;;;;;5.00;4.15;;;;;;;;;;10760066;26;20085;-73
2024/04/25 22:58:11;;;;;;;4.18;3.78;;;;;;;;;;10766503;26;20401;-73
2024/04/25 23:03:07;;;;;;;4.63;4.18;;;;;;;;;;10762014;26;20004;-73
2024/04/25 23:08:01;;;;;;;4.32;3.92;;;;;;;;;;10775434;26;20019;-72
2024/04/25 23:12:55;;;;;;;5.00;3.80;;;;;;;;;;10766624;26;20005;-73
2024/04/25 23:17:49;;;;;;;4.60;4.20;;;;;;;;;;10767790;26;20024;-72
2024/04/25 23:22:43;;;;;;;4.72;4.25;;;;;;;;;;10767509;26;20088;-72
2024/04/25 23:27:37;;;;;;;5.20;4.70;;;;;;;;;;10766527;26;20004;-72
2024/04/25 23:32:31;;;;;;;5.70;5.07;;;;;;;;;;10768533;26;20008;-72
2024/04/25 23:37:26;;;;;;;5.85;5.35;;;;;;;;;;10767845;26;20012;-72
2024/04/25 23:42:20;;;;;;;5.97;5.45;;;;;;;;;;10763590;26;20026;-73
2024/04/25 23:47:15;;;;;;;4.65;4.25;;;;;;;;;;10771612;26;20023;-74
2024/04/25 23:52:09;;;;;;;14.68;4.93;;;;;;;;;;10778325;26;20004;-74
2024/04/25 23:57:04;;;;;;;5.68;5.13;;;;;;;;;;10762828;26;20008;-74
